createdAt,value
2023-04-09T06:14:16.770Z,7.60
2023-04-09T06:16:45.989Z,7.57
2023-04-09T06:19:17.785Z,7.71
2023-04-09T06:21:46.882Z,7.63
2023-04-09T06:24:21.783Z,7.75
2023-04-09T06:26:56.807Z,7.81
2023-04-09T06:29:39.947Z,7.83
2023-04-09T06:32:10.518Z,7.94
2023-04-09T06:34:39.441Z,7.98
2023-04-09T06:37:15.269Z,8.05
2023-04-09T06:39:50.647Z,8.12
2023-04-09T06:43:00.841Z,8.26
2023-04-09T06:45:30.420Z,8.21
2023-04-09T06:48:42.859Z,8.44
2023-04-09T06:51:12.895Z,8.53
2023-04-09T06:53:42.779Z,8.57
2023-04-09T06:56:11.774Z,8.73
2023-04-09T06:58:40.972Z,8.70
2023-04-09T07:01:10.216Z,8.78
2023-04-09T07:04:06.213Z,8.87
2023-04-09T07:06:35.277Z,8.95
2023-04-09T07:09:25.373Z,8.94
2023-04-09T07:12:01.840Z,8.93
2023-04-09T07:14:31.152Z,8.97
2023-04-09T07:17:00.306Z,9.03
2023-04-09T07:20:06.652Z,9.11
2023-04-09T07:22:37.027Z,9.14
2023-04-09T07:25:29.933Z,9.24
2023-04-09T07:27:59.996Z,9.21
2023-04-09T07:31:05.528Z,9.40
2023-04-09T07:33:49.292Z,9.57
2023-04-09T07:36:18.308Z,9.57
2023-04-09T07:38:47.384Z,9.57
2023-04-09T07:41:16.800Z,9.61
2023-04-09T07:43:45.702Z,9.79
2023-04-09T07:46:33.611Z,9.84
2023-04-09T07:49:05.223Z,9.70
2023-04-09T07:51:50.519Z,9.82
2023-04-09T07:54:49.877Z,9.85
2023-04-09T07:57:18.634Z,10.03
2023-04-09T07:59:47.760Z,9.92
2023-04-09T08:02:16.599Z,10.03
2023-04-09T08:04:47.341Z,10.08
2023-04-09T08:07:22.204Z,10.24
2023-04-09T08:10:03.874Z,10.29
2023-04-09T08:12:39.428Z,10.27
2023-04-09T08:15:36.526Z,10.33
2023-04-09T08:18:11.808Z,10.46
2023-04-09T08:20:45.740Z,10.48
2023-04-09T08:23:15.123Z,10.56
2023-04-09T08:25:44.056Z,10.57
2023-04-09T08:28:13.033Z,10.56
2023-04-09T08:30:45.172Z,10.50
2023-04-09T08:33:15.810Z,10.57
2023-04-09T08:35:48.099Z,10.71
2023-04-09T08:38:16.761Z,10.72
2023-04-09T08:40:45.860Z,10.82
2023-04-09T08:43:16.849Z,10.86
2023-04-09T08:45:45.152Z,10.70
2023-04-09T08:48:19.229Z,10.71
2023-04-09T08:50:48.090Z,10.75
2023-04-09T08:53:19.752Z,10.95
2023-04-09T08:55:49.246Z,11.13
2023-04-09T08:58:19.280Z,11.03
2023-04-09T09:00:47.592Z,11.25
2023-04-09T09:03:24.650Z,11.39
2023-04-09T09:05:53.403Z,11.38
2023-04-09T09:12:01.821Z,11.49
2023-04-09T09:14:34.076Z,11.54
2023-04-09T09:17:07.015Z,11.63
2023-04-09T09:19:39.749Z,11.86
2023-04-09T09:22:13.677Z,11.97
2023-04-09T09:25:00.609Z,11.94
2023-04-09T09:27:44.444Z,12.07
2023-04-09T09:30:31.254Z,12.27
2023-04-09T09:33:14.480Z,12.31
2023-04-09T09:36:35.969Z,12.42
2023-04-09T09:39:19.642Z,12.43
2023-04-09T09:41:48.897Z,12.55
2023-04-09T09:44:36.774Z,12.76
2023-04-09T09:47:10.037Z,12.69
2023-04-09T09:49:39.177Z,12.78
2023-04-09T09:52:12.871Z,12.84
2023-04-09T09:55:00.500Z,13.11
2023-04-09T09:57:40.142Z,13.02
2023-04-09T10:00:16.025Z,13.37
2023-04-09T10:03:29.307Z,13.30
2023-04-09T10:06:02.518Z,13.23
2023-04-09T10:09:51.229Z,13.65
2023-04-09T10:12:24.693Z,13.76
2023-04-09T10:15:22.020Z,14.00
2023-04-09T10:21:37.147Z,14.39
2023-04-09T10:24:12.907Z,14.47
2023-04-09T10:26:45.345Z,14.73
2023-04-09T10:29:17.261Z,14.73
2023-04-09T10:32:07.935Z,15.13
2023-04-09T10:35:11.814Z,15.21
2023-04-09T10:37:50.044Z,15.57
2023-04-09T10:41:20.072Z,15.71
2023-04-09T10:44:35.935Z,15.66
2023-04-09T10:47:35.843Z,15.82
2023-04-09T10:50:43.624Z,16.13
2023-04-09T10:53:28.240Z,16.26
2023-04-09T10:56:49.672Z,16.52
2023-04-09T10:59:25.031Z,16.22
2023-04-09T11:02:00.058Z,16.51
2023-04-09T11:05:40.161Z,16.49
2023-04-09T11:08:22.740Z,17.05
2023-04-09T11:10:53.862Z,16.96
2023-04-09T11:13:22.865Z,16.82
2023-04-09T11:15:51.774Z,17.23
2023-04-09T11:18:34.725Z,17.53
2023-04-09T11:21:12.862Z,17.67
2023-04-09T11:23:43.708Z,17.92
2023-04-09T11:26:13.105Z,18.11
2023-04-09T11:29:23.556Z,18.32
2023-04-09T11:31:58.905Z,18.29
2023-04-09T11:34:47.340Z,18.33
2023-04-09T11:37:57.056Z,18.73
2023-04-09T11:40:29.906Z,18.78
2023-04-09T11:43:25.296Z,18.50
2023-04-09T11:45:56.502Z,18.58
2023-04-09T11:48:28.422Z,18.56
2023-04-09T11:50:57.565Z,18.70
2023-04-09T11:53:34.686Z,19.02
2023-04-09T11:56:04.202Z,19.03
2023-04-09T11:58:33.603Z,19.45
2023-04-09T12:01:09.825Z,19.55
2023-04-09T12:04:03.409Z,19.95
2023-04-09T12:06:33.319Z,19.83
2023-04-09T12:09:05.702Z,19.66
2023-04-09T12:11:47.191Z,20.16
2023-04-09T12:14:26.195Z,19.92
2023-04-09T12:16:57.587Z,20.13
2023-04-09T12:19:40.619Z,20.19
2023-04-09T12:22:09.494Z,20.15
2023-04-09T12:24:38.142Z,20.45
2023-04-09T12:27:28.401Z,20.06
2023-04-09T12:29:57.347Z,20.35
2023-04-09T12:32:26.505Z,20.66
2023-04-09T12:34:56.015Z,21.18
2023-04-09T12:37:25.580Z,20.59
2023-04-09T12:40:28.793Z,20.74
2023-04-09T12:43:57.860Z,21.03
2023-04-09T12:46:42.431Z,21.54
2023-04-09T12:49:36.126Z,21.43
2023-04-09T12:52:07.927Z,21.66
2023-04-09T12:54:53.892Z,22.01
2023-04-09T12:57:46.256Z,21.74
2023-04-09T13:00:16.497Z,22.53
2023-04-09T13:02:45.841Z,22.82
2023-04-09T13:05:25.725Z,22.73
2023-04-09T13:07:57.147Z,22.25
2023-04-09T13:10:26.730Z,22.55
2023-04-09T13:12:55.793Z,22.33
2023-04-09T13:15:24.990Z,22.58
2023-04-09T13:17:54.310Z,22.80
2023-04-09T13:20:23.549Z,22.56
2023-04-09T13:22:52.937Z,22.28
2023-04-09T13:25:24.286Z,22.38
2023-04-09T13:27:53.367Z,22.72
2023-04-09T13:30:42.861Z,22.56
2023-04-09T13:33:16.650Z,22.77
2023-04-09T13:35:46.211Z,22.20
2023-04-09T13:38:35.923Z,22.57
2023-04-09T13:41:30.748Z,22.68
2023-04-09T13:44:02.430Z,22.92
2023-04-09T13:46:36.931Z,23.05
2023-04-09T13:49:19.029Z,23.00
2023-04-09T13:51:50.465Z,23.24
2023-04-09T13:54:26.510Z,22.88
2023-04-09T13:57:31.907Z,23.24
2023-04-09T14:00:23.837Z,23.39
2023-04-09T14:03:30.974Z,23.30
2023-04-09T14:05:59.748Z,23.23
2023-04-09T14:08:33.095Z,22.98
2023-04-09T14:11:50.013Z,23.10
2023-04-09T14:14:26.759Z,23.25
2023-04-09T14:16:55.535Z,23.01
2023-04-09T14:19:25.595Z,23.25
2023-04-09T14:21:55.744Z,23.66
2023-04-09T14:24:25.606Z,23.49
2023-04-09T14:27:12.714Z,23.45
2023-04-09T14:30:09.512Z,22.95
2023-04-09T14:33:00.413Z,22.83
2023-04-09T14:36:01.507Z,23.39
2023-04-09T14:41:40.401Z,23.85
2023-04-09T14:44:09.424Z,23.56
2023-04-09T14:47:06.793Z,23.68
2023-04-09T14:49:50.923Z,23.70
2023-04-09T14:52:20.389Z,23.44
2023-04-09T14:54:49.351Z,23.15
2023-04-09T15:01:07.936Z,23.65
2023-04-09T15:04:02.377Z,23.68
2023-04-09T15:06:32.864Z,23.28
2023-04-09T15:09:02.205Z,23.29
2023-04-09T15:11:35.068Z,23.32
2023-04-09T15:14:04.348Z,22.80
2023-04-09T15:16:47.613Z,23.14
2023-04-09T15:19:16.680Z,22.78
2023-04-09T15:21:46.064Z,22.83
2023-04-09T15:24:15.320Z,23.06
2023-04-09T15:26:44.092Z,23.06
2023-04-09T15:29:42.685Z,22.81
2023-04-09T15:32:33.106Z,22.75
2023-04-09T15:35:02.535Z,22.57
2023-04-09T15:38:18.950Z,22.75
2023-04-09T15:41:12.132Z,22.60
2023-04-09T15:43:41.091Z,22.28
2023-04-09T15:46:13.289Z,22.18
2023-04-09T15:48:42.815Z,22.44
2023-04-09T15:51:12.172Z,22.04
2023-04-09T15:53:41.569Z,22.07
2023-04-09T15:56:16.739Z,22.20
2023-04-09T15:58:45.398Z,22.39
2023-04-09T16:01:16.781Z,21.83
2023-04-09T16:03:45.015Z,21.25
2023-04-09T16:06:41.016Z,20.96
2023-04-09T16:09:09.636Z,21.19
2023-04-09T16:11:39.033Z,20.85
2023-04-09T16:14:45.457Z,21.31
2023-04-09T16:17:14.606Z,20.79
2023-04-09T16:19:44.245Z,20.48
2023-04-09T16:22:13.857Z,20.29
2023-04-09T16:24:43.092Z,20.10
2023-04-09T16:27:20.738Z,19.89
2023-04-09T16:29:49.118Z,19.66
2023-04-09T16:32:42.023Z,19.79
2023-04-09T16:35:11.562Z,19.67
2023-04-09T16:41:19.173Z,19.03
2023-04-09T16:44:36.680Z,18.69
2023-04-09T16:47:06.746Z,19.08
2023-04-09T16:54:35.473Z,19.06
2023-04-09T16:57:12.112Z,18.77
2023-04-09T16:59:42.896Z,18.65
2023-04-09T17:02:12.327Z,18.54
2023-04-09T17:05:25.805Z,18.59
2023-04-09T17:07:54.991Z,18.15
2023-04-09T17:10:23.813Z,18.18
2023-04-09T17:13:42.425Z,18.28
2023-04-09T17:16:36.781Z,17.99
2023-04-09T17:19:06.315Z,18.08
2023-04-09T17:21:37.640Z,18.08
2023-04-09T17:24:19.453Z,17.89
2023-04-09T17:26:59.212Z,17.63
2023-04-09T17:29:55.760Z,17.60
2023-04-09T17:35:43.668Z,17.30
2023-04-09T17:38:30.686Z,17.49
2023-04-09T17:41:00.064Z,17.20
2023-04-09T17:44:09.684Z,17.17
2023-04-09T17:46:37.493Z,16.86
2023-04-09T17:49:10.456Z,16.86
2023-04-09T17:51:42.762Z,16.65
2023-04-09T17:54:10.193Z,16.69
2023-04-09T17:56:39.132Z,16.66
2023-04-09T17:59:07.333Z,16.70
2023-04-09T18:01:34.983Z,16.60
2023-04-09T18:04:02.825Z,16.55
2023-04-09T18:06:31.629Z,16.45
2023-04-09T18:08:59.210Z,16.33
2023-04-09T18:11:27.224Z,16.33
2023-04-09T18:13:54.727Z,16.26
2023-04-09T18:16:23.408Z,16.51
2023-04-09T18:18:51.128Z,16.37
2023-04-09T18:21:18.609Z,16.20
2023-04-09T18:23:46.595Z,16.21
2023-04-09T18:26:14.080Z,16.31
2023-04-09T18:28:42.014Z,16.17
2023-04-09T18:31:12.189Z,16.11
2023-04-09T18:33:39.814Z,16.06
2023-04-09T18:36:07.625Z,16.08
2023-04-09T18:38:35.132Z,16.03
2023-04-09T18:41:03.548Z,15.92
2023-04-09T18:43:31.037Z,15.96
2023-04-09T18:45:58.477Z,15.91
2023-04-09T18:48:26.129Z,15.89
2023-04-09T18:50:53.646Z,15.81
2023-04-09T18:53:21.352Z,15.86
2023-04-09T18:55:48.865Z,15.74
2023-04-09T18:58:16.445Z,15.65
2023-04-09T19:00:43.979Z,15.63
2023-04-09T19:03:12.272Z,15.39
2023-04-09T19:05:40.281Z,15.47
2023-04-09T19:08:08.006Z,15.38
2023-04-09T19:10:36.183Z,15.39
2023-04-09T19:13:04.169Z,15.44
2023-04-09T19:15:31.781Z,15.30
2023-04-09T19:17:59.308Z,15.30
2023-04-09T19:20:27.317Z,15.25
2023-04-09T19:22:56.676Z,15.22
2023-04-09T19:25:24.265Z,15.27
2023-04-09T19:27:53.709Z,15.17
2023-04-09T19:30:21.395Z,15.26
2023-04-09T19:32:48.982Z,14.95
2023-04-09T19:35:16.994Z,14.98
2023-04-09T19:37:44.998Z,15.06
2023-04-09T19:40:15.666Z,15.01
2023-04-09T19:42:43.334Z,14.93
2023-04-09T19:45:11.957Z,14.69
2023-04-09T19:47:39.634Z,14.63
2023-04-09T19:50:07.651Z,14.77
2023-04-09T19:52:35.157Z,14.78
2023-04-09T19:55:04.439Z,14.79
2023-04-09T19:57:31.993Z,14.69
2023-04-09T19:59:59.436Z,14.71
2023-04-09T20:02:27.064Z,14.55
2023-04-09T20:04:54.849Z,14.43
2023-04-09T20:07:22.467Z,14.34
2023-04-09T20:09:50.088Z,14.34
2023-04-09T20:12:17.757Z,14.49
2023-04-09T20:14:46.010Z,14.53
2023-04-09T20:17:13.622Z,14.48
2023-04-09T20:19:41.101Z,14.33
2023-04-09T20:22:08.620Z,14.36
2023-04-09T20:24:36.863Z,14.36
2023-04-09T20:27:04.528Z,14.45
2023-04-09T20:29:32.053Z,14.44
2023-04-09T20:31:59.581Z,14.38
2023-04-09T20:34:28.212Z,14.32
2023-04-09T20:36:56.038Z,14.23
2023-04-09T20:39:26.820Z,14.10
2023-04-09T20:41:56.721Z,14.13
2023-04-09T20:44:24.644Z,14.11
2023-04-09T20:46:52.138Z,13.99
2023-04-09T20:49:19.740Z,13.92
2023-04-09T20:51:47.742Z,13.90
2023-04-09T20:54:15.592Z,13.79
2023-04-09T20:56:44.835Z,13.88
2023-04-09T20:59:12.444Z,13.77
2023-04-09T21:01:40.454Z,13.83
2023-04-09T21:04:08.975Z,13.78
2023-04-09T21:06:36.472Z,13.58
2023-04-09T21:09:03.984Z,13.74
2023-04-09T21:11:31.757Z,13.62
2023-04-09T21:13:59.512Z,13.46
2023-04-09T21:16:28.727Z,13.34
2023-04-09T21:18:56.693Z,13.47
2023-04-09T21:21:27.424Z,13.34
2023-04-09T21:23:54.962Z,13.17
2023-04-09T21:26:22.488Z,13.11
2023-04-09T21:28:50.667Z,13.04
2023-04-09T21:31:18.342Z,13.05
2023-04-09T21:33:46.179Z,13.01
2023-04-09T21:36:13.909Z,12.95
2023-04-09T21:38:41.592Z,12.82
2023-04-09T21:41:09.110Z,12.57
2023-04-09T21:43:38.483Z,12.67
2023-04-09T21:46:06.178Z,12.53
2023-04-09T21:48:33.749Z,12.48
2023-04-09T21:51:01.292Z,12.50
2023-04-09T21:53:31.534Z,12.51
2023-04-09T21:55:59.116Z,12.38
2023-04-09T21:58:26.547Z,12.25
2023-04-09T22:00:53.979Z,12.29
2023-04-09T22:03:22.667Z,12.27
2023-04-09T22:05:50.470Z,12.12
2023-04-09T22:08:18.459Z,11.92
2023-04-09T22:10:46.329Z,12.17
2023-04-09T22:13:13.836Z,11.96
2023-04-09T22:15:41.985Z,12.02
2023-04-09T22:18:09.580Z,12.05
2023-04-09T22:20:37.225Z,12.05
2023-04-09T22:23:04.698Z,12.01
2023-04-09T22:25:35.137Z,11.93
2023-04-09T22:28:02.770Z,11.84
2023-04-09T22:30:30.547Z,11.74
2023-04-09T22:32:58.097Z,11.91
2023-04-09T22:35:25.706Z,11.93
2023-04-09T22:37:53.425Z,11.73
2023-04-09T22:40:21.115Z,11.73
2023-04-09T22:42:48.798Z,11.63
2023-04-09T22:45:16.443Z,11.54
2023-04-09T22:47:43.989Z,11.55
2023-04-09T22:50:13.549Z,11.57
2023-04-09T22:52:41.074Z,11.52
2023-04-09T22:55:10.295Z,11.44
2023-04-09T22:57:38.488Z,11.55
2023-04-09T23:00:08.600Z,11.46
2023-04-09T23:02:37.084Z,11.38
2023-04-09T23:05:05.154Z,11.40
2023-04-09T23:07:32.758Z,11.33
2023-04-09T23:10:01.628Z,11.31
2023-04-09T23:12:29.099Z,11.31
2023-04-09T23:14:56.563Z,11.24
2023-04-09T23:17:24.701Z,11.30
2023-04-09T23:19:54.947Z,11.25
2023-04-09T23:22:24.358Z,11.24
2023-04-09T23:24:51.891Z,11.17
2023-04-09T23:27:19.798Z,11.33
2023-04-09T23:29:47.233Z,11.37
2023-04-09T23:32:14.732Z,11.32
2023-04-09T23:34:42.167Z,11.22
2023-04-09T23:37:10.348Z,11.16
2023-04-09T23:39:37.903Z,11.32
2023-04-09T23:42:05.914Z,11.19
2023-04-09T23:44:33.580Z,11.01
2023-04-09T23:47:01.586Z,11.40
2023-04-09T23:49:38.699Z,11.23
2023-04-09T23:52:12.170Z,11.23
2023-04-09T23:54:51.605Z,11.12
2023-04-09T23:57:25.482Z,11.28
2023-04-09T23:59:58.257Z,11.10
